createdAt,value
2023-12-23T00:02:22.181Z,94353.44
2023-12-23T00:05:08.652Z,94358.03
2023-12-23T00:07:55.144Z,94348.22
2023-12-23T00:10:41.279Z,94356.09
2023-12-23T00:13:28.030Z,94347.34
2023-12-23T00:16:14.183Z,94354.50
2023-12-23T00:19:00.393Z,94348.56
2023-12-23T00:21:47.369Z,94345.91
2023-12-23T00:24:33.240Z,94341.22
2023-12-23T00:27:19.491Z,94325.59
2023-12-23T00:30:07.305Z,94344.69
2023-12-23T00:32:53.188Z,94320.34
2023-12-23T00:35:39.182Z,94301.50
2023-12-23T00:38:25.757Z,94315.47
2023-12-23T00:41:12.021Z,94317.50
2023-12-23T00:43:58.069Z,94310.94
2023-12-23T00:46:44.055Z,94312.75
2023-12-23T00:49:30.298Z,94314.19
2023-12-23T00:52:17.157Z,94311.75
2023-12-23T00:55:03.956Z,94279.00
2023-12-23T00:57:50.630Z,94305.41
2023-12-23T01:00:39.804Z,94302.97
2023-12-23T01:03:25.925Z,94293.34
2023-12-23T01:06:12.095Z,94296.19
2023-12-23T01:08:58.144Z,94290.69
2023-12-23T01:11:44.357Z,94296.47
2023-12-23T01:14:30.388Z,94294.81
2023-12-23T01:17:16.600Z,94303.91
2023-12-23T01:20:03.425Z,94290.44
2023-12-23T01:22:49.332Z,94285.97
2023-12-23T01:25:35.362Z,94302.91
2023-12-23T01:28:21.470Z,94283.06
2023-12-23T01:31:07.507Z,94296.34
2023-12-23T01:33:53.686Z,94312.13
2023-12-23T01:36:39.993Z,94322.75
2023-12-23T01:39:25.961Z,94304.75
2023-12-23T01:42:12.064Z,94291.72
2023-12-23T01:44:57.889Z,94313.66
2023-12-23T01:47:49.076Z,94310.34
2023-12-23T01:50:35.451Z,94307.34
2023-12-23T01:53:22.423Z,94301.66
2023-12-23T01:56:09.393Z,94299.00
2023-12-23T01:58:56.326Z,94298.41
2023-12-23T02:01:42.989Z,94290.06
2023-12-23T02:04:29.161Z,94269.13
2023-12-23T02:07:15.711Z,94278.00
2023-12-23T02:10:04.695Z,94269.00
2023-12-23T02:13:18.520Z,94236.66
2023-12-23T02:16:06.090Z,94236.91
2023-12-23T02:18:53.062Z,94229.13
2023-12-23T02:21:38.942Z,94224.44
2023-12-23T02:24:26.140Z,94221.91
2023-12-23T02:27:14.506Z,94233.03
2023-12-23T02:30:01.308Z,94243.03
2023-12-23T02:32:47.546Z,94229.94
2023-12-23T02:35:33.542Z,94226.28
2023-12-23T02:38:23.376Z,94219.69
2023-12-23T02:41:09.919Z,94231.13
2023-12-23T02:43:55.862Z,94210.22
2023-12-23T02:46:41.759Z,94228.69
2023-12-23T02:49:27.587Z,94239.09
2023-12-23T02:52:15.068Z,94236.28
2023-12-23T02:55:01.082Z,94241.19
2023-12-23T02:57:47.083Z,94235.25
2023-12-23T03:00:33.273Z,94236.69
2023-12-23T03:03:19.628Z,94245.47
2023-12-23T03:06:06.755Z,94252.81
2023-12-23T03:08:53.058Z,94248.78
2023-12-23T03:11:38.942Z,94236.91
2023-12-23T03:14:25.325Z,94231.13
2023-12-23T03:17:11.176Z,94243.97
2023-12-23T03:19:57.243Z,94250.31
2023-12-23T03:22:44.163Z,94250.13
2023-12-23T03:25:30.456Z,94239.63
2023-12-23T03:28:16.785Z,94245.75
2023-12-23T03:31:02.666Z,94251.69
2023-12-23T03:33:48.459Z,94253.94
2023-12-23T03:36:34.374Z,94259.41
2023-12-23T03:39:21.113Z,94253.03
2023-12-23T03:42:07.260Z,94253.00
2023-12-23T03:44:53.225Z,94257.03
2023-12-23T03:47:41.273Z,94266.50
2023-12-23T03:50:30.927Z,94278.97
2023-12-23T03:53:17.349Z,94280.34
2023-12-23T03:56:05.256Z,94252.66
2023-12-23T03:58:51.315Z,94270.50
2023-12-23T04:01:37.621Z,94249.09
2023-12-23T04:04:23.987Z,94269.41
2023-12-23T04:07:09.975Z,94275.56
2023-12-23T04:09:55.947Z,94257.16
2023-12-23T04:12:41.847Z,94272.25
2023-12-23T04:15:27.735Z,94271.97
2023-12-23T04:18:14.209Z,94275.47
2023-12-23T04:21:00.339Z,94273.91
2023-12-23T04:23:46.330Z,94278.47
2023-12-23T04:26:33.917Z,94270.50
2023-12-23T04:29:20.067Z,94269.19
2023-12-23T04:32:07.153Z,94259.63
2023-12-23T04:34:53.320Z,94258.63
2023-12-23T04:37:43.450Z,94271.00
2023-12-23T04:40:30.481Z,94272.66
2023-12-23T04:43:16.555Z,94270.19
2023-12-23T04:46:04.014Z,94270.38
2023-12-23T04:48:50.303Z,94282.91
2023-12-23T04:51:36.657Z,94283.34
2023-12-23T04:54:23.005Z,94297.09
2023-12-23T04:57:09.123Z,94297.81
2023-12-23T04:59:55.180Z,94292.03
2023-12-23T05:02:41.348Z,94305.00
2023-12-23T05:05:27.410Z,94304.13
2023-12-23T05:08:18.287Z,94305.41
2023-12-23T05:11:04.843Z,94318.75
2023-12-23T05:13:50.616Z,94316.56
2023-12-23T05:16:36.756Z,94311.53
2023-12-23T05:19:23.131Z,94309.88
2023-12-23T05:22:10.009Z,94309.88
2023-12-23T05:24:56.657Z,94324.97
2023-12-23T05:27:42.825Z,94330.34
2023-12-23T05:30:28.983Z,94307.22
2023-12-23T05:33:15.328Z,94312.38
2023-12-23T05:36:01.246Z,94326.09
2023-12-23T05:38:47.107Z,94327.09
2023-12-23T05:41:33.848Z,94300.03
2023-12-23T05:44:20.034Z,94317.50
2023-12-23T05:47:06.107Z,94314.22
2023-12-23T05:49:52.175Z,94327.66
2023-12-23T05:52:38.278Z,94342.03
2023-12-23T05:55:24.366Z,94335.69
2023-12-23T05:58:10.691Z,94325.09
2023-12-23T06:00:56.691Z,94343.31
2023-12-23T06:03:42.697Z,94339.63
2023-12-23T06:06:28.741Z,94347.41
2023-12-23T06:09:14.827Z,94343.72
2023-12-23T06:12:00.988Z,94345.75
2023-12-23T06:14:46.836Z,94342.03
2023-12-23T06:17:33.027Z,94372.75
2023-12-23T06:20:19.729Z,94371.47
2023-12-23T06:23:05.871Z,94359.56
2023-12-23T06:25:51.913Z,94365.91
2023-12-23T06:28:38.230Z,94376.56
2023-12-23T06:31:24.546Z,94383.78
2023-12-23T06:34:10.551Z,94383.34
2023-12-23T06:36:56.466Z,94391.94
2023-12-23T06:39:42.465Z,94375.69
2023-12-23T06:42:28.305Z,94390.09
2023-12-23T06:45:14.459Z,94400.53
2023-12-23T06:48:00.831Z,94406.03
2023-12-23T06:50:47.421Z,94400.00
2023-12-23T06:53:33.689Z,94378.06
2023-12-23T06:56:20.053Z,94379.78
2023-12-23T06:59:10.788Z,94406.50
2023-12-23T07:01:56.903Z,94408.81
2023-12-23T07:04:43.680Z,94422.72
2023-12-23T07:07:29.869Z,94425.63
2023-12-23T07:10:15.900Z,94412.00
2023-12-23T07:13:01.762Z,94445.28
2023-12-23T07:15:47.809Z,94431.84
2023-12-23T07:18:33.905Z,94430.94
2023-12-23T07:21:20.588Z,94453.97
2023-12-23T07:24:07.056Z,94461.19
2023-12-23T07:26:52.986Z,94463.22
2023-12-23T07:29:44.080Z,94452.81
2023-12-23T07:32:31.835Z,94459.91
2023-12-23T07:35:20.989Z,94484.25
2023-12-23T07:38:08.826Z,94481.97
2023-12-23T07:40:55.686Z,94496.34
2023-12-23T07:43:41.663Z,94474.56
2023-12-23T07:46:27.538Z,94484.25
2023-12-23T07:49:14.651Z,94504.09
2023-12-23T07:52:01.006Z,94513.41
2023-12-23T07:54:47.162Z,94522.66
2023-12-23T07:57:33.169Z,94525.78
2023-12-23T08:00:19.514Z,94547.75
2023-12-23T08:03:05.987Z,94545.28
2023-12-23T08:05:52.389Z,94545.91
2023-12-23T08:08:38.386Z,94549.66
2023-12-23T08:11:24.450Z,94551.50
2023-12-23T08:14:12.423Z,94575.03
2023-12-23T08:16:58.702Z,94586.28
2023-12-23T08:19:44.678Z,94587.56
2023-12-23T08:22:30.876Z,94594.44
2023-12-23T08:25:17.198Z,94592.03
2023-12-23T08:28:03.360Z,94599.66
2023-12-23T08:30:49.692Z,94597.59
2023-12-23T08:33:35.862Z,94603.00
2023-12-23T08:36:22.203Z,94606.09
2023-12-23T08:39:08.385Z,94598.38
2023-12-23T08:41:54.705Z,94608.28
2023-12-23T08:44:41.147Z,94624.31
2023-12-23T08:47:27.168Z,94619.56
2023-12-23T08:50:13.088Z,94623.38
2023-12-23T08:52:59.126Z,94617.28
2023-12-23T08:55:48.229Z,94629.25
2023-12-23T08:58:34.406Z,94629.31
2023-12-23T09:01:20.440Z,94635.47
2023-12-23T09:04:06.616Z,94629.78
2023-12-23T09:06:52.579Z,94647.81
2023-12-23T09:09:41.637Z,94637.94
2023-12-23T09:12:27.653Z,94648.22
2023-12-23T09:15:13.847Z,94645.88
2023-12-23T09:18:00.373Z,94642.50
2023-12-23T09:20:46.771Z,94615.66
2023-12-23T09:23:32.796Z,94616.00
2023-12-23T09:26:19.208Z,94608.88
2023-12-23T09:29:05.565Z,94606.50
2023-12-23T09:31:51.923Z,94598.81
2023-12-23T09:34:38.152Z,94614.72
2023-12-23T09:37:24.387Z,94597.25
2023-12-23T09:40:11.898Z,94613.22
2023-12-23T09:42:57.989Z,94610.81
2023-12-23T09:45:44.249Z,94612.88
2023-12-23T09:48:30.482Z,94608.22
2023-12-23T09:51:18.734Z,94622.03
2023-12-23T09:54:08.670Z,94615.69
2023-12-23T09:56:56.822Z,94624.91
2023-12-23T09:59:42.987Z,94610.75
2023-12-23T10:02:29.324Z,94634.38
2023-12-23T10:05:15.332Z,94638.09
2023-12-23T10:08:01.259Z,94625.75
2023-12-23T10:10:49.978Z,94638.31
2023-12-23T10:13:37.618Z,94657.03
2023-12-23T10:16:23.910Z,94661.16
2023-12-23T10:19:10.423Z,94652.09
2023-12-23T10:21:56.500Z,94660.13
2023-12-23T10:24:42.416Z,94664.28
2023-12-23T10:27:31.805Z,94679.25
2023-12-23T10:30:18.358Z,94689.34
2023-12-23T10:33:09.745Z,94674.97
2023-12-23T10:35:58.006Z,94682.38
2023-12-23T10:38:50.632Z,94669.81
2023-12-23T10:41:52.008Z,94666.72
2023-12-23T10:44:38.343Z,94675.56
2023-12-23T10:47:25.141Z,94666.09
2023-12-23T10:50:11.549Z,94643.44
2023-12-23T10:52:58.032Z,94634.81
2023-12-23T10:55:45.145Z,94634.38
2023-12-23T10:58:32.530Z,94648.38
2023-12-23T11:01:21.072Z,94632.13
2023-12-23T11:04:07.083Z,94628.44
2023-12-23T11:06:59.657Z,94623.22
2023-12-23T11:09:47.894Z,94618.53
2023-12-23T11:12:34.882Z,94629.56
2023-12-23T11:15:21.121Z,94606.16
2023-12-23T11:18:09.064Z,94612.72
2023-12-23T11:20:55.617Z,94618.09
2023-12-23T11:23:41.621Z,94601.25
2023-12-23T11:26:41.429Z,94612.31
2023-12-23T11:29:27.739Z,94614.00
2023-12-23T11:32:15.079Z,94614.78
2023-12-23T11:35:02.285Z,94612.06
2023-12-23T11:37:51.375Z,94598.41
2023-12-23T11:40:38.112Z,94597.63
2023-12-23T11:43:24.461Z,94586.69
2023-12-23T12:34:38.385Z,94588.59
2023-12-23T12:37:24.807Z,94569.28
2023-12-23T12:40:12.403Z,94585.25
2023-12-23T12:42:58.653Z,94582.88
2023-12-23T12:45:44.606Z,94583.06
2023-12-23T12:48:30.760Z,94573.88
2023-12-23T12:51:17.454Z,94568.91
2023-12-23T12:54:06.182Z,94582.88
2023-12-23T12:56:52.244Z,94574.63
2023-12-23T12:59:38.168Z,94576.75
2023-12-23T13:02:24.557Z,94559.50
2023-12-23T13:05:10.949Z,94562.44
2023-12-23T13:07:57.192Z,94568.28
2023-12-23T13:10:45.954Z,94550.59
2023-12-23T13:13:34.146Z,94567.13
2023-12-23T13:16:20.499Z,94573.59
2023-12-23T13:19:07.206Z,94590.16
2023-12-23T13:21:53.525Z,94590.94
2023-12-23T13:24:39.631Z,94586.06
2023-12-23T13:27:25.722Z,94572.03
2023-12-23T13:30:12.224Z,94604.59
2023-12-23T13:32:58.937Z,94597.56
2023-12-23T13:35:44.987Z,94603.03
2023-12-23T13:38:31.208Z,94545.59
2023-12-23T13:41:29.373Z,94599.03
2023-12-23T13:44:15.306Z,94617.97
2023-12-23T13:47:01.812Z,94626.34
2023-12-23T13:49:48.270Z,94611.28
2023-12-23T13:52:35.146Z,94614.50
2023-12-23T13:55:21.126Z,94631.16
2023-12-23T13:58:11.099Z,94615.47
2023-12-23T14:00:58.848Z,94620.31
2023-12-23T14:03:45.350Z,94635.69
2023-12-23T14:06:31.808Z,94628.19
2023-12-23T14:09:17.796Z,94640.59
2023-12-23T14:12:04.281Z,94616.56
2023-12-23T14:14:50.270Z,94622.47
2023-12-23T14:17:36.568Z,94613.56
2023-12-23T14:20:22.784Z,94618.31
2023-12-23T14:23:08.794Z,94588.63
2023-12-23T14:25:55.021Z,94619.72
2023-12-23T14:28:41.567Z,94646.09
2023-12-23T14:31:29.374Z,94604.31
2023-12-23T14:34:16.273Z,94638.94
2023-12-23T14:37:02.342Z,94628.69
2023-12-23T14:39:49.902Z,94602.13
2023-12-23T14:42:35.949Z,94587.16
2023-12-23T14:45:21.900Z,94604.50
2023-12-23T14:48:08.217Z,94626.03
2023-12-23T14:50:54.677Z,94629.94
2023-12-23T14:53:40.920Z,94614.03
2023-12-23T14:56:27.740Z,94586.28
2023-12-23T14:59:14.144Z,94626.97
2023-12-23T15:02:01.150Z,94640.19
2023-12-23T15:04:47.236Z,94634.25
2023-12-23T15:07:33.143Z,94609.19
2023-12-23T15:10:19.305Z,94616.63
2023-12-23T15:13:05.851Z,94618.47
2023-12-23T15:15:52.328Z,94629.38
2023-12-23T15:18:38.597Z,94639.25
2023-12-23T15:21:25.250Z,94622.44
2023-12-23T15:24:11.459Z,94630.69
2023-12-23T15:26:57.555Z,94614.28
2023-12-23T15:29:44.578Z,94642.09
2023-12-23T15:32:32.404Z,94620.66
2023-12-23T15:35:18.883Z,94594.53
2023-12-23T15:38:05.194Z,94575.19
2023-12-23T15:40:53.143Z,94561.84
2023-12-23T15:43:39.274Z,94582.66
2023-12-23T15:46:25.422Z,94573.03
2023-12-23T15:49:11.955Z,94596.91
2023-12-23T15:51:58.172Z,94617.28
2023-12-23T15:54:46.377Z,94630.31
2023-12-23T15:57:32.505Z,94621.25
2023-12-23T16:00:19.268Z,94621.91
2023-12-23T16:03:05.916Z,94647.16
2023-12-23T16:05:52.075Z,94649.25
2023-12-23T16:08:38.585Z,94656.88
2023-12-23T16:11:24.984Z,94643.72
2023-12-23T16:14:11.455Z,94673.75
2023-12-23T16:16:57.592Z,94676.19
2023-12-23T16:19:45.275Z,94665.47
2023-12-23T16:22:32.133Z,94691.78
2023-12-23T16:25:18.862Z,94695.28
2023-12-23T16:28:05.091Z,94692.81
2023-12-23T16:30:52.548Z,94689.13
2023-12-23T16:33:38.870Z,94690.09
2023-12-23T16:36:25.115Z,94680.22
2023-12-23T16:39:11.098Z,94691.13
2023-12-23T16:41:57.295Z,94685.56
2023-12-23T16:44:43.548Z,94676.91
2023-12-23T16:47:29.769Z,94663.75
2023-12-23T16:50:16.646Z,94678.94
2023-12-23T16:53:02.627Z,94674.81
2023-12-23T16:55:48.682Z,94667.00
2023-12-23T16:58:34.856Z,94678.09
2023-12-23T17:01:21.139Z,94681.94
2023-12-23T17:04:07.964Z,94686.06
2023-12-23T17:06:54.306Z,94680.91
2023-12-23T17:09:40.515Z,94689.13
2023-12-23T17:12:28.148Z,94686.41
2023-12-23T17:15:14.897Z,94709.06
2023-12-23T17:18:01.728Z,94693.25
2023-12-23T17:20:48.743Z,94694.69
2023-12-23T17:23:35.059Z,94701.06
2023-12-23T17:26:21.120Z,94691.78
2023-12-23T17:29:08.453Z,94710.03
2023-12-23T17:31:56.146Z,94683.25
2023-12-23T17:34:42.449Z,94728.09
2023-12-23T17:37:40.235Z,94727.94
2023-12-23T17:40:28.946Z,94732.63
2023-12-23T17:43:15.341Z,94719.88
2023-12-23T17:46:01.500Z,94727.06
2023-12-23T17:48:47.670Z,94699.22
2023-12-23T17:51:33.780Z,94699.81
2023-12-23T17:54:19.881Z,94728.63
2023-12-23T17:57:06.452Z,94724.94
2023-12-23T17:59:52.712Z,94732.28
2023-12-23T18:02:39.157Z,94723.09
2023-12-23T18:05:25.516Z,94716.72
2023-12-23T18:08:12.172Z,94724.13
2023-12-23T18:10:57.996Z,94715.69
2023-12-23T18:13:44.178Z,94704.34
2023-12-23T18:16:30.297Z,94711.97
2023-12-23T18:19:16.383Z,94705.34
2023-12-23T18:22:03.107Z,94719.50
2023-12-23T18:24:49.075Z,94703.53
2023-12-23T18:27:35.138Z,94707.22
2023-12-23T18:30:24.052Z,94723.66
2023-12-23T18:33:10.162Z,94714.75
2023-12-23T18:35:56.588Z,94720.13
2023-12-23T18:38:43.108Z,94694.41
2023-12-23T18:41:29.421Z,94723.34
2023-12-23T18:44:15.373Z,94707.22
2023-12-23T18:47:01.253Z,94691.22
2023-12-23T18:49:47.372Z,94705.56
2023-12-23T18:52:33.467Z,94676.94
2023-12-23T18:55:19.338Z,94695.28
2023-12-23T18:58:05.536Z,94738.78
2023-12-23T19:00:53.849Z,94749.66
2023-12-23T19:03:40.058Z,94747.19
2023-12-23T19:06:25.891Z,94749.44
2023-12-23T19:09:12.967Z,94752.31
2023-12-23T19:11:59.007Z,94740.34
2023-12-23T19:14:45.320Z,94757.19
2023-12-23T19:17:31.427Z,94755.97
2023-12-23T19:20:17.638Z,94742.09
2023-12-23T19:23:08.886Z,94767.00
2023-12-23T19:25:56.760Z,94777.47
2023-12-23T19:28:43.140Z,94777.88
2023-12-23T19:31:32.354Z,94799.44
2023-12-23T19:34:19.773Z,94789.53
2023-12-23T19:37:05.855Z,94794.91
2023-12-23T19:39:59.720Z,94787.31
2023-12-23T19:42:54.488Z,94783.81
2023-12-23T19:45:44.134Z,94798.41
2023-12-23T19:48:30.565Z,94809.31
2023-12-23T19:51:16.684Z,94806.19
2023-12-23T19:54:03.114Z,94791.56
2023-12-23T19:56:50.702Z,94804.75
2023-12-23T19:59:37.126Z,94820.19
2023-12-23T20:02:23.476Z,94817.88
2023-12-23T20:05:09.908Z,94827.72
2023-12-23T20:07:57.342Z,94817.06
2023-12-23T20:10:43.562Z,94818.72
2023-12-23T20:13:29.913Z,94829.16
2023-12-23T20:16:26.235Z,94830.88
2023-12-23T20:19:17.277Z,94834.44
2023-12-23T20:22:03.546Z,94826.00
2023-12-23T20:24:49.877Z,94833.75
2023-12-23T20:27:36.377Z,94836.41
2023-12-23T20:30:22.738Z,94825.84
2023-12-23T20:33:09.157Z,94813.47
2023-12-23T20:35:56.288Z,94826.16
2023-12-23T20:38:42.570Z,94824.38
2023-12-23T20:41:28.966Z,94822.22
2023-12-23T20:44:15.240Z,94829.38
2023-12-23T20:47:01.600Z,94836.38
2023-12-23T20:49:48.018Z,94834.03
2023-12-23T20:52:34.057Z,94846.66
2023-12-23T20:55:21.285Z,94849.97
2023-12-23T20:58:07.444Z,94854.84
2023-12-23T21:00:53.739Z,94854.28
2023-12-23T21:03:39.912Z,94851.00
2023-12-23T21:06:26.046Z,94863.03
2023-12-23T21:09:12.493Z,94864.22
2023-12-23T21:11:58.521Z,94851.56
2023-12-23T21:14:44.558Z,94860.09
2023-12-23T21:17:30.798Z,94866.25
2023-12-23T21:20:16.872Z,94862.63
2023-12-23T21:23:03.311Z,94865.03
2023-12-23T21:25:52.149Z,94874.28
2023-12-23T21:28:38.410Z,94879.41
2023-12-23T21:31:24.564Z,94882.09
2023-12-23T21:34:10.976Z,94892.28
2023-12-23T21:37:00.172Z,94894.38
2023-12-23T21:39:46.153Z,94893.84
2023-12-23T21:42:32.364Z,94906.06
2023-12-23T21:45:18.450Z,94901.69
2023-12-23T21:48:05.626Z,94928.47
2023-12-23T21:50:55.347Z,94929.22
2023-12-23T21:53:41.785Z,94926.91
2023-12-23T21:56:28.526Z,94942.25
2023-12-23T21:59:15.234Z,94941.69
2023-12-23T22:02:01.327Z,94942.97
2023-12-23T22:04:47.801Z,94944.16
2023-12-23T22:07:33.819Z,94951.97
2023-12-23T22:10:19.880Z,94940.50
2023-12-23T22:13:06.167Z,94944.72
2023-12-23T22:15:52.857Z,94935.91
2023-12-23T22:18:39.398Z,94950.78
2023-12-23T22:21:25.983Z,94955.66
2023-12-23T22:24:12.280Z,94943.78
2023-12-23T22:26:58.698Z,94945.81
2023-12-23T22:29:45.304Z,94929.03
2023-12-23T22:32:31.737Z,94921.59
2023-12-23T22:35:18.750Z,94924.88
2023-12-23T22:38:05.037Z,94956.00
2023-12-23T22:40:52.142Z,94952.06
2023-12-23T22:43:38.573Z,94949.84
2023-12-23T22:46:28.695Z,94963.34
2023-12-23T22:49:14.941Z,94941.78
2023-12-23T22:52:01.168Z,94953.19
2023-12-23T22:54:47.053Z,94974.84
2023-12-23T22:57:42.128Z,94970.81
2023-12-23T23:00:30.693Z,94973.53
2023-12-23T23:03:17.562Z,94978.50
2023-12-23T23:06:03.570Z,94980.69
2023-12-23T23:08:49.941Z,94967.59
2023-12-23T23:11:36.790Z,94971.97
2023-12-23T23:14:23.112Z,94982.75
2023-12-23T23:17:09.546Z,94983.84
2023-12-23T23:19:56.716Z,94980.63
2023-12-23T23:22:42.758Z,94981.16
2023-12-23T23:25:29.085Z,94975.03
2023-12-23T23:28:15.293Z,94985.81
2023-12-23T23:31:02.233Z,94989.78
2023-12-23T23:33:55.282Z,94987.31
2023-12-23T23:36:45.614Z,94997.88
2023-12-23T23:39:31.755Z,94999.34
2023-12-23T23:42:18.700Z,95005.69
2023-12-23T23:45:05.567Z,95002.81
2023-12-23T23:47:52.025Z,95006.16
2023-12-23T23:50:38.042Z,95007.53
2023-12-23T23:53:24.414Z,95002.00
2023-12-23T23:56:11.414Z,95014.03
2023-12-23T23:58:57.876Z,94988.22
